sensor_id;sensor_type;location;lat;lon;timestamp;P1;durP1;ratioP1;P2;durP2;ratioP2
56122;SDS011;42426;46.104;19.656;2023-03-01T00:00:38;40.00;;;24.30;;
56122;SDS011;42426;46.104;19.656;2023-03-01T00:03:04;43.63;;;24.05;;
56122;SDS011;42426;46.104;19.656;2023-03-01T00:05:30;40.15;;;23.55;;
56122;SDS011;42426;46.104;19.656;2023-03-01T00:07:56;37.42;;;23.15;;
56122;SDS011;42426;46.104;19.656;2023-03-01T00:10:22;41.92;;;21.75;;
56122;SDS011;42426;46.104;19.656;2023-03-01T00:12:48;42.85;;;23.23;;
56122;SDS011;42426;46.104;19.656;2023-03-01T00:15:14;44.38;;;23.42;;
56122;SDS011;42426;46.104;19.656;2023-03-01T00:17:40;41.10;;;23.70;;
56122;SDS011;42426;46.104;19.656;2023-03-01T00:20:06;38.90;;;21.13;;
56122;SDS011;42426;46.104;19.656;2023-03-01T00:22:36;35.83;;;19.80;;
56122;SDS011;42426;46.104;19.656;2023-03-01T00:25:03;34.13;;;20.58;;
56122;SDS011;42426;46.104;19.656;2023-03-01T00:27:29;40.85;;;20.77;;
56122;SDS011;42426;46.104;19.656;2023-03-01T00:29:55;37.70;;;21.70;;
56122;SDS011;42426;46.104;19.656;2023-03-01T00:32:21;31.98;;;19.70;;
56122;SDS011;42426;46.104;19.656;2023-03-01T00:34:47;35.17;;;19.50;;
56122;SDS011;42426;46.104;19.656;2023-03-01T00:37:20;42.90;;;21.00;;
56122;SDS011;42426;46.104;19.656;2023-03-01T00:39:46;30.67;;;19.35;;
56122;SDS011;42426;46.104;19.656;2023-03-01T00:42:12;32.58;;;19.60;;
56122;SDS011;42426;46.104;19.656;2023-03-01T00:44:38;33.78;;;18.92;;
56122;SDS011;42426;46.104;19.656;2023-03-01T00:47:04;37.05;;;19.65;;
56122;SDS011;42426;46.104;19.656;2023-03-01T00:49:30;30.42;;;17.73;;
56122;SDS011;42426;46.104;19.656;2023-03-01T00:51:56;30.48;;;17.92;;
56122;SDS011;42426;46.104;19.656;2023-03-01T00:54:23;34.55;;;19.40;;
56122;SDS011;42426;46.104;19.656;2023-03-01T00:56:49;43.22;;;24.33;;
56122;SDS011;42426;46.104;19.656;2023-03-01T00:59:15;41.33;;;23.02;;
56122;SDS011;42426;46.104;19.656;2023-03-01T01:01:41;34.42;;;21.67;;
56122;SDS011;42426;46.104;19.656;2023-03-01T01:04:08;38.53;;;21.05;;
56122;SDS011;42426;46.104;19.656;2023-03-01T01:06:36;35.47;;;19.50;;
56122;SDS011;42426;46.104;19.656;2023-03-01T01:09:03;31.48;;;18.65;;
56122;SDS011;42426;46.104;19.656;2023-03-01T01:11:31;37.63;;;19.67;;
56122;SDS011;42426;46.104;19.656;2023-03-01T01:13:57;36.08;;;20.00;;
56122;SDS011;42426;46.104;19.656;2023-03-01T01:16:24;33.55;;;19.27;;
56122;SDS011;42426;46.104;19.656;2023-03-01T01:18:51;31.83;;;18.33;;
56122;SDS011;42426;46.104;19.656;2023-03-01T01:21:17;32.50;;;19.38;;
56122;SDS011;42426;46.104;19.656;2023-03-01T01:23:44;31.83;;;19.45;;
56122;SDS011;42426;46.104;19.656;2023-03-01T01:26:12;35.90;;;18.48;;
56122;SDS011;42426;46.104;19.656;2023-03-01T01:28:39;31.85;;;18.75;;
56122;SDS011;42426;46.104;19.656;2023-03-01T01:31:05;34.00;;;19.25;;
56122;SDS011;42426;46.104;19.656;2023-03-01T01:33:31;29.55;;;18.00;;
56122;SDS011;42426;46.104;19.656;2023-03-01T01:35:57;33.10;;;19.60;;
56122;SDS011;42426;46.104;19.656;2023-03-01T01:38:24;33.35;;;18.90;;
56122;SDS011;42426;46.104;19.656;2023-03-01T01:40:50;37.85;;;19.25;;
56122;SDS011;42426;46.104;19.656;2023-03-01T01:43:22;31.20;;;17.98;;
56122;SDS011;42426;46.104;19.656;2023-03-01T01:45:48;30.42;;;19.40;;
56122;SDS011;42426;46.104;19.656;2023-03-01T01:48:22;32.35;;;17.98;;
56122;SDS011;42426;46.104;19.656;2023-03-01T01:50:57;31.67;;;17.20;;
56122;SDS011;42426;46.104;19.656;2023-03-01T01:53:25;33.08;;;17.98;;
56122;SDS011;42426;46.104;19.656;2023-03-01T01:55:52;32.35;;;17.85;;
56122;SDS011;42426;46.104;19.656;2023-03-01T01:58:22;36.22;;;19.15;;
56122;SDS011;42426;46.104;19.656;2023-03-01T02:00:49;27.50;;;16.50;;
56122;SDS011;42426;46.104;19.656;2023-03-01T02:03:17;30.58;;;19.48;;
56122;SDS011;42426;46.104;19.656;2023-03-01T02:05:49;30.77;;;19.45;;
56122;SDS011;42426;46.104;19.656;2023-03-01T02:08:17;28.90;;;17.48;;
56122;SDS011;42426;46.104;19.656;2023-03-01T02:10:44;29.50;;;17.58;;
56122;SDS011;42426;46.104;19.656;2023-03-01T02:13:11;31.02;;;18.40;;
56122;SDS011;42426;46.104;19.656;2023-03-01T02:15:38;34.05;;;19.15;;
56122;SDS011;42426;46.104;19.656;2023-03-01T02:18:05;29.08;;;18.35;;
56122;SDS011;42426;46.104;19.656;2023-03-01T02:20:39;34.67;;;19.30;;
56122;SDS011;42426;46.104;19.656;2023-03-01T02:23:07;34.70;;;20.80;;
56122;SDS011;42426;46.104;19.656;2023-03-01T02:30:42;33.08;;;19.83;;
56122;SDS011;42426;46.104;19.656;2023-03-01T02:33:28;30.17;;;18.30;;
56122;SDS011;42426;46.104;19.656;2023-03-01T02:35:57;31.00;;;18.15;;
56122;SDS011;42426;46.104;19.656;2023-03-01T02:38:24;34.60;;;20.13;;
56122;SDS011;42426;46.104;19.656;2023-03-01T02:40:50;33.45;;;20.13;;
56122;SDS011;42426;46.104;19.656;2023-03-01T02:43:17;26.50;;;16.38;;
56122;SDS011;42426;46.104;19.656;2023-03-01T02:45:50;30.58;;;18.10;;
56122;SDS011;42426;46.104;19.656;2023-03-01T02:48:17;31.92;;;17.73;;
56122;SDS011;42426;46.104;19.656;2023-03-01T02:55:35;37.42;;;18.48;;
56122;SDS011;42426;46.104;19.656;2023-03-01T02:58:02;33.42;;;19.10;;
56122;SDS011;42426;46.104;19.656;2023-03-01T03:00:50;33.97;;;20.40;;
56122;SDS011;42426;46.104;19.656;2023-03-01T03:03:17;34.88;;;18.63;;
56122;SDS011;42426;46.104;19.656;2023-03-01T03:05:44;30.92;;;17.58;;
56122;SDS011;42426;46.104;19.656;2023-03-01T03:08:11;31.95;;;19.23;;
56122;SDS011;42426;46.104;19.656;2023-03-01T03:10:38;38.42;;;21.42;;
56122;SDS011;42426;46.104;19.656;2023-03-01T03:13:09;32.33;;;18.65;;
56122;SDS011;42426;46.104;19.656;2023-03-01T03:15:35;36.28;;;19.92;;
56122;SDS011;42426;46.104;19.656;2023-03-01T03:18:02;32.78;;;17.90;;
56122;SDS011;42426;46.104;19.656;2023-03-01T03:20:28;29.27;;;18.13;;
56122;SDS011;42426;46.104;19.656;2023-03-01T03:22:55;34.92;;;19.48;;
56122;SDS011;42426;46.104;19.656;2023-03-01T03:25:21;32.45;;;18.42;;
56122;SDS011;42426;46.104;19.656;2023-03-01T03:27:48;33.47;;;19.05;;
56122;SDS011;42426;46.104;19.656;2023-03-01T03:30:21;31.88;;;18.63;;
56122;SDS011;42426;46.104;19.656;2023-03-01T03:32:48;33.17;;;18.88;;
56122;SDS011;42426;46.104;19.656;2023-03-01T03:35:21;32.30;;;19.95;;
56122;SDS011;42426;46.104;19.656;2023-03-01T03:37:47;32.05;;;19.42;;
56122;SDS011;42426;46.104;19.656;2023-03-01T03:40:38;31.20;;;19.08;;
56122;SDS011;42426;46.104;19.656;2023-03-01T03:43:05;30.73;;;18.63;;
56122;SDS011;42426;46.104;19.656;2023-03-01T03:45:32;32.47;;;18.50;;
56122;SDS011;42426;46.104;19.656;2023-03-01T03:47:58;29.52;;;16.85;;
56122;SDS011;42426;46.104;19.656;2023-03-01T03:50:25;32.05;;;18.98;;
56122;SDS011;42426;46.104;19.656;2023-03-01T03:52:51;32.50;;;18.63;;
56122;SDS011;42426;46.104;19.656;2023-03-01T03:55:17;26.70;;;17.00;;
56122;SDS011;42426;46.104;19.656;2023-03-01T03:57:45;31.13;;;18.00;;
56122;SDS011;42426;46.104;19.656;2023-03-01T04:00:17;30.45;;;18.05;;
56122;SDS011;42426;46.104;19.656;2023-03-01T04:02:44;32.17;;;17.95;;
56122;SDS011;42426;46.104;19.656;2023-03-01T04:05:11;33.33;;;19.10;;
56122;SDS011;42426;46.104;19.656;2023-03-01T04:07:38;34.25;;;18.88;;
56122;SDS011;42426;46.104;19.656;2023-03-01T04:10:05;29.02;;;17.88;;
56122;SDS011;42426;46.104;19.656;2023-03-01T04:12:32;33.25;;;19.00;;
56122;SDS011;42426;46.104;19.656;2023-03-01T04:14:59;31.48;;;17.98;;
56122;SDS011;42426;46.104;19.656;2023-03-01T04:17:26;33.22;;;18.92;;
56122;SDS011;42426;46.104;19.656;2023-03-01T04:19:52;32.15;;;19.52;;
56122;SDS011;42426;46.104;19.656;2023-03-01T04:22:19;29.92;;;17.83;;
56122;SDS011;42426;46.104;19.656;2023-03-01T04:24:46;29.10;;;18.60;;
56122;SDS011;42426;46.104;19.656;2023-03-01T04:27:12;30.50;;;17.77;;
56122;SDS011;42426;46.104;19.656;2023-03-01T04:29:38;29.67;;;18.83;;
56122;SDS011;42426;46.104;19.656;2023-03-01T04:32:04;31.67;;;17.73;;
56122;SDS011;42426;46.104;19.656;2023-03-01T04:34:30;34.13;;;18.92;;
56122;SDS011;42426;46.104;19.656;2023-03-01T04:36:56;31.08;;;18.33;;
56122;SDS011;42426;46.104;19.656;2023-03-01T04:39:22;30.58;;;17.77;;
56122;SDS011;42426;46.104;19.656;2023-03-01T04:41:48;33.15;;;19.77;;
56122;SDS011;42426;46.104;19.656;2023-03-01T04:44:14;35.63;;;20.33;;
56122;SDS011;42426;46.104;19.656;2023-03-01T04:46:41;36.05;;;19.00;;
56122;SDS011;42426;46.104;19.656;2023-03-01T04:49:07;34.97;;;20.38;;
56122;SDS011;42426;46.104;19.656;2023-03-01T04:51:34;37.03;;;19.65;;
56122;SDS011;42426;46.104;19.656;2023-03-01T04:54:00;35.53;;;19.67;;
56122;SDS011;42426;46.104;19.656;2023-03-01T04:56:27;32.53;;;18.00;;
56122;SDS011;42426;46.104;19.656;2023-03-01T04:58:53;34.00;;;19.60;;
56122;SDS011;42426;46.104;19.656;2023-03-01T05:01:19;32.13;;;19.40;;
56122;SDS011;42426;46.104;19.656;2023-03-01T05:03:47;31.35;;;19.88;;
56122;SDS011;42426;46.104;19.656;2023-03-01T05:06:13;32.03;;;19.70;;
56122;SDS011;42426;46.104;19.656;2023-03-01T05:08:40;34.17;;;19.55;;
56122;SDS011;42426;46.104;19.656;2023-03-01T05:11:06;34.55;;;19.33;;
56122;SDS011;42426;46.104;19.656;2023-03-01T05:13:36;34.85;;;20.63;;
56122;SDS011;42426;46.104;19.656;2023-03-01T05:16:03;34.97;;;19.92;;
56122;SDS011;42426;46.104;19.656;2023-03-01T05:18:30;35.40;;;19.10;;
56122;SDS011;42426;46.104;19.656;2023-03-01T05:21:05;33.97;;;20.88;;
56122;SDS011;42426;46.104;19.656;2023-03-01T05:23:32;39.42;;;21.40;;
56122;SDS011;42426;46.104;19.656;2023-03-01T05:25:58;36.20;;;21.60;;
56122;SDS011;42426;46.104;19.656;2023-03-01T05:28:25;36.58;;;20.42;;
56122;SDS011;42426;46.104;19.656;2023-03-01T05:30:51;33.53;;;21.17;;
56122;SDS011;42426;46.104;19.656;2023-03-01T05:33:17;41.92;;;21.33;;
56122;SDS011;42426;46.104;19.656;2023-03-01T05:35:44;39.45;;;23.30;;
56122;SDS011;42426;46.104;19.656;2023-03-01T05:38:11;36.13;;;20.92;;
56122;SDS011;42426;46.104;19.656;2023-03-01T05:40:38;38.45;;;21.70;;
56122;SDS011;42426;46.104;19.656;2023-03-01T05:43:05;38.25;;;21.67;;
56122;SDS011;42426;46.104;19.656;2023-03-01T05:45:31;41.92;;;23.38;;
56122;SDS011;42426;46.104;19.656;2023-03-01T05:47:58;36.50;;;21.90;;
56122;SDS011;42426;46.104;19.656;2023-03-01T05:50:25;36.22;;;20.70;;
56122;SDS011;42426;46.104;19.656;2023-03-01T05:52:55;36.30;;;22.80;;
56122;SDS011;42426;46.104;19.656;2023-03-01T05:55:22;37.05;;;20.25;;
56122;SDS011;42426;46.104;19.656;2023-03-01T05:57:48;37.42;;;22.83;;
56122;SDS011;42426;46.104;19.656;2023-03-01T06:00:16;37.40;;;23.63;;
56122;SDS011;42426;46.104;19.656;2023-03-01T06:02:43;37.83;;;22.80;;
56122;SDS011;42426;46.104;19.656;2023-03-01T06:05:10;42.42;;;24.17;;
56122;SDS011;42426;46.104;19.656;2023-03-01T06:07:36;39.78;;;21.52;;
56122;SDS011;42426;46.104;19.656;2023-03-01T06:10:03;36.35;;;23.92;;
56122;SDS011;42426;46.104;19.656;2023-03-01T06:12:30;35.80;;;23.02;;
56122;SDS011;42426;46.104;19.656;2023-03-01T06:14:56;40.42;;;23.70;;
56122;SDS011;42426;46.104;19.656;2023-03-01T06:17:22;42.65;;;23.92;;
56122;SDS011;42426;46.104;19.656;2023-03-01T06:19:48;39.60;;;22.92;;
56122;SDS011;42426;46.104;19.656;2023-03-01T06:22:14;39.28;;;23.10;;
56122;SDS011;42426;46.104;19.656;2023-03-01T06:24:40;41.60;;;24.15;;
56122;SDS011;42426;46.104;19.656;2023-03-01T06:27:06;40.67;;;21.67;;
56122;SDS011;42426;46.104;19.656;2023-03-01T06:29:33;38.42;;;23.50;;
56122;SDS011;42426;46.104;19.656;2023-03-01T06:31:59;38.00;;;23.73;;
56122;SDS011;42426;46.104;19.656;2023-03-01T06:34:25;38.65;;;23.52;;
56122;SDS011;42426;46.104;19.656;2023-03-01T06:36:51;40.75;;;24.08;;
56122;SDS011;42426;46.104;19.656;2023-03-01T06:39:17;38.95;;;22.83;;
56122;SDS011;42426;46.104;19.656;2023-03-01T06:41:44;38.90;;;23.23;;
56122;SDS011;42426;46.104;19.656;2023-03-01T06:44:10;42.42;;;23.45;;
56122;SDS011;42426;46.104;19.656;2023-03-01T06:46:36;39.58;;;23.13;;
56122;SDS011;42426;46.104;19.656;2023-03-01T06:49:04;38.78;;;24.42;;
56122;SDS011;42426;46.104;19.656;2023-03-01T06:51:34;41.38;;;23.65;;
56122;SDS011;42426;46.104;19.656;2023-03-01T06:54:00;45.47;;;25.40;;
56122;SDS011;42426;46.104;19.656;2023-03-01T06:56:26;46.92;;;25.83;;
56122;SDS011;42426;46.104;19.656;2023-03-01T06:58:52;44.53;;;24.27;;
56122;SDS011;42426;46.104;19.656;2023-03-01T07:01:18;41.75;;;24.50;;
56122;SDS011;42426;46.104;19.656;2023-03-01T07:03:44;42.67;;;24.13;;
56122;SDS011;42426;46.104;19.656;2023-03-01T07:06:11;42.33;;;24.60;;
56122;SDS011;42426;46.104;19.656;2023-03-01T07:08:37;38.03;;;23.98;;
56122;SDS011;42426;46.104;19.656;2023-03-01T07:11:03;40.65;;;25.88;;
56122;SDS011;42426;46.104;19.656;2023-03-01T07:13:30;43.22;;;25.25;;
56122;SDS011;42426;46.104;19.656;2023-03-01T07:15:56;41.42;;;24.52;;
56122;SDS011;42426;46.104;19.656;2023-03-01T07:18:22;37.47;;;21.98;;
56122;SDS011;42426;46.104;19.656;2023-03-01T07:20:49;40.42;;;22.65;;
56122;SDS011;42426;46.104;19.656;2023-03-01T07:23:15;40.88;;;24.42;;
56122;SDS011;42426;46.104;19.656;2023-03-01T07:25:41;37.25;;;23.00;;
56122;SDS011;42426;46.104;19.656;2023-03-01T07:28:07;40.63;;;24.10;;
56122;SDS011;42426;46.104;19.656;2023-03-01T07:30:33;40.47;;;23.83;;
56122;SDS011;42426;46.104;19.656;2023-03-01T07:33:00;36.83;;;23.67;;
56122;SDS011;42426;46.104;19.656;2023-03-01T07:35:26;42.25;;;23.80;;
56122;SDS011;42426;46.104;19.656;2023-03-01T07:37:52;39.05;;;23.75;;
56122;SDS011;42426;46.104;19.656;2023-03-01T07:40:19;35.50;;;21.58;;
56122;SDS011;42426;46.104;19.656;2023-03-01T07:42:45;36.35;;;21.70;;
56122;SDS011;42426;46.104;19.656;2023-03-01T07:45:11;34.67;;;20.70;;
56122;SDS011;42426;46.104;19.656;2023-03-01T07:47:38;34.80;;;21.83;;
56122;SDS011;42426;46.104;19.656;2023-03-01T07:50:05;38.58;;;24.63;;
56122;SDS011;42426;46.104;19.656;2023-03-01T07:52:31;36.20;;;20.45;;
56122;SDS011;42426;46.104;19.656;2023-03-01T07:58:00;36.30;;;21.42;;
56122;SDS011;42426;46.104;19.656;2023-03-01T08:12:29;32.55;;;20.95;;
56122;SDS011;42426;46.104;19.656;2023-03-01T08:17:58;28.85;;;19.52;;
56122;SDS011;42426;46.104;19.656;2023-03-01T08:23:29;32.25;;;19.92;;
56122;SDS011;42426;46.104;19.656;2023-03-01T08:29:16;36.45;;;19.85;;
56122;SDS011;42426;46.104;19.656;2023-03-01T08:35:04;34.65;;;21.83;;
56122;SDS011;42426;46.104;19.656;2023-03-01T08:40:52;34.38;;;19.02;;
56122;SDS011;42426;46.104;19.656;2023-03-01T08:43:18;32.63;;;20.33;;
56122;SDS011;42426;46.104;19.656;2023-03-01T08:45:44;38.33;;;21.10;;
56122;SDS011;42426;46.104;19.656;2023-03-01T08:48:09;39.42;;;20.98;;
56122;SDS011;42426;46.104;19.656;2023-03-01T08:50:35;38.90;;;21.95;;
56122;SDS011;42426;46.104;19.656;2023-03-01T08:53:01;28.50;;;18.00;;
56122;SDS011;42426;46.104;19.656;2023-03-01T08:55:27;32.40;;;18.45;;
56122;SDS011;42426;46.104;19.656;2023-03-01T08:57:53;34.38;;;18.67;;
56122;SDS011;42426;46.104;19.656;2023-03-01T09:00:18;34.13;;;19.83;;
56122;SDS011;42426;46.104;19.656;2023-03-01T09:02:44;33.47;;;19.10;;
56122;SDS011;42426;46.104;19.656;2023-03-01T09:05:10;35.72;;;20.15;;
56122;SDS011;42426;46.104;19.656;2023-03-01T09:07:38;36.05;;;20.63;;
56122;SDS011;42426;46.104;19.656;2023-03-01T09:10:03;31.55;;;19.00;;
56122;SDS011;42426;46.104;19.656;2023-03-01T09:12:30;28.70;;;19.83;;
56122;SDS011;42426;46.104;19.656;2023-03-01T09:14:55;33.63;;;19.80;;
56122;SDS011;42426;46.104;19.656;2023-03-01T09:17:21;39.90;;;20.88;;
56122;SDS011;42426;46.104;19.656;2023-03-01T09:19:47;29.98;;;18.15;;
56122;SDS011;42426;46.104;19.656;2023-03-01T09:22:13;31.00;;;17.25;;
56122;SDS011;42426;46.104;19.656;2023-03-01T09:24:39;33.80;;;19.27;;
56122;SDS011;42426;46.104;19.656;2023-03-01T09:27:05;35.95;;;18.80;;
56122;SDS011;42426;46.104;19.656;2023-03-01T09:29:33;33.50;;;19.23;;
56122;SDS011;42426;46.104;19.656;2023-03-01T09:32:02;27.98;;;17.90;;
56122;SDS011;42426;46.104;19.656;2023-03-01T09:34:28;29.88;;;18.38;;
56122;SDS011;42426;46.104;19.656;2023-03-01T09:36:54;27.02;;;18.05;;
56122;SDS011;42426;46.104;19.656;2023-03-01T09:39:22;32.42;;;18.90;;
56122;SDS011;42426;46.104;19.656;2023-03-01T09:42:00;26.40;;;18.95;;
56122;SDS011;42426;46.104;19.656;2023-03-01T09:44:31;32.15;;;19.38;;
56122;SDS011;42426;46.104;19.656;2023-03-01T09:46:58;35.63;;;19.50;;
56122;SDS011;42426;46.104;19.656;2023-03-01T09:49:26;35.63;;;20.15;;
56122;SDS011;42426;46.104;19.656;2023-03-01T09:54:49;30.83;;;19.00;;
56122;SDS011;42426;46.104;19.656;2023-03-01T10:00:45;34.08;;;18.55;;
56122;SDS011;42426;46.104;19.656;2023-03-01T10:06:44;33.65;;;20.63;;
56122;SDS011;42426;46.104;19.656;2023-03-01T10:09:35;33.05;;;18.25;;
56122;SDS011;42426;46.104;19.656;2023-03-01T10:12:04;32.95;;;19.73;;
56122;SDS011;42426;46.104;19.656;2023-03-01T10:14:48;33.70;;;21.30;;
56122;SDS011;42426;46.104;19.656;2023-03-01T10:20:24;35.97;;;19.70;;
56122;SDS011;42426;46.104;19.656;2023-03-01T10:22:53;32.67;;;19.25;;
56122;SDS011;42426;46.104;19.656;2023-03-01T10:31:24;36.05;;;21.38;;
56122;SDS011;42426;46.104;19.656;2023-03-01T10:33:54;32.08;;;18.52;;
56122;SDS011;42426;46.104;19.656;2023-03-01T10:36:22;31.13;;;20.85;;
56122;SDS011;42426;46.104;19.656;2023-03-01T10:38:50;34.95;;;21.92;;
56122;SDS011;42426;46.104;19.656;2023-03-01T10:41:22;36.03;;;22.77;;
56122;SDS011;42426;46.104;19.656;2023-03-01T10:51:44;37.40;;;21.38;;
56122;SDS011;42426;46.104;19.656;2023-03-01T10:54:31;32.10;;;18.95;;
56122;SDS011;42426;46.104;19.656;2023-03-01T10:56:59;34.45;;;20.73;;
56122;SDS011;42426;46.104;19.656;2023-03-01T10:59:30;33.08;;;21.40;;
56122;SDS011;42426;46.104;19.656;2023-03-01T11:02:03;32.35;;;19.35;;
56122;SDS011;42426;46.104;19.656;2023-03-01T11:04:32;28.92;;;19.15;;
56122;SDS011;42426;46.104;19.656;2023-03-01T11:06:59;36.45;;;21.42;;
56122;SDS011;42426;46.104;19.656;2023-03-01T11:09:26;39.20;;;20.52;;
56122;SDS011;42426;46.104;19.656;2023-03-01T11:12:03;36.58;;;20.33;;
56122;SDS011;42426;46.104;19.656;2023-03-01T11:14:38;37.58;;;22.02;;
56122;SDS011;42426;46.104;19.656;2023-03-01T11:22:32;31.70;;;19.33;;
56122;SDS011;42426;46.104;19.656;2023-03-01T11:25:00;37.83;;;19.90;;
56122;SDS011;42426;46.104;19.656;2023-03-01T11:27:35;39.90;;;20.25;;
56122;SDS011;42426;46.104;19.656;2023-03-01T11:35:41;33.38;;;18.88;;
56122;SDS011;42426;46.104;19.656;2023-03-01T11:38:15;28.83;;;18.80;;
56122;SDS011;42426;46.104;19.656;2023-03-01T12:05:17;35.70;;;19.48;;
56122;SDS011;42426;46.104;19.656;2023-03-01T12:24:05;29.27;;;18.77;;
56122;SDS011;42426;46.104;19.656;2023-03-01T12:32:43;28.85;;;17.90;;
56122;SDS011;42426;46.104;19.656;2023-03-01T12:42:03;31.27;;;18.35;;
56122;SDS011;42426;46.104;19.656;2023-03-01T12:49:52;33.83;;;18.85;;
56122;SDS011;42426;46.104;19.656;2023-03-01T12:54:51;30.50;;;16.65;;
56122;SDS011;42426;46.104;19.656;2023-03-01T12:57:29;29.65;;;17.95;;
56122;SDS011;42426;46.104;19.656;2023-03-01T13:08:52;28.38;;;16.70;;
56122;SDS011;42426;46.104;19.656;2023-03-01T13:11:21;28.73;;;18.42;;
56122;SDS011;42426;46.104;19.656;2023-03-01T13:13:47;33.88;;;17.48;;
56122;SDS011;42426;46.104;19.656;2023-03-01T13:19:08;35.00;;;19.42;;
56122;SDS011;42426;46.104;19.656;2023-03-01T13:21:44;26.85;;;17.67;;
56122;SDS011;42426;46.104;19.656;2023-03-01T13:29:51;28.70;;;19.00;;
56122;SDS011;42426;46.104;19.656;2023-03-01T13:32:25;31.10;;;19.57;;
56122;SDS011;42426;46.104;19.656;2023-03-01T13:37:36;29.58;;;19.50;;
56122;SDS011;42426;46.104;19.656;2023-03-01T13:40:04;29.67;;;18.45;;
56122;SDS011;42426;46.104;19.656;2023-03-01T13:42:54;28.25;;;18.48;;
56122;SDS011;42426;46.104;19.656;2023-03-01T13:48:14;29.10;;;18.80;;
56122;SDS011;42426;46.104;19.656;2023-03-01T13:50:50;29.65;;;17.85;;
56122;SDS011;42426;46.104;19.656;2023-03-01T13:53:21;32.13;;;19.13;;
56122;SDS011;42426;46.104;19.656;2023-03-01T13:55:54;31.92;;;19.25;;
56122;SDS011;42426;46.104;19.656;2023-03-01T13:58:29;32.50;;;20.38;;
56122;SDS011;42426;46.104;19.656;2023-03-01T14:01:03;33.15;;;21.80;;
56122;SDS011;42426;46.104;19.656;2023-03-01T14:03:32;31.58;;;20.25;;
56122;SDS011;42426;46.104;19.656;2023-03-01T14:06:12;31.10;;;19.30;;
56122;SDS011;42426;46.104;19.656;2023-03-01T14:08:40;31.42;;;19.55;;
56122;SDS011;42426;46.104;19.656;2023-03-01T14:11:13;34.22;;;19.15;;
56122;SDS011;42426;46.104;19.656;2023-03-01T14:24:30;40.72;;;23.48;;
56122;SDS011;42426;46.104;19.656;2023-03-01T14:26:58;38.22;;;22.30;;
56122;SDS011;42426;46.104;19.656;2023-03-01T14:29:36;35.85;;;20.92;;
56122;SDS011;42426;46.104;19.656;2023-03-01T14:32:24;36.88;;;22.52;;
56122;SDS011;42426;46.104;19.656;2023-03-01T14:34:52;36.45;;;21.35;;
56122;SDS011;42426;46.104;19.656;2023-03-01T14:39:43;34.58;;;21.73;;
56122;SDS011;42426;46.104;19.656;2023-03-01T14:42:09;34.33;;;22.02;;
56122;SDS011;42426;46.104;19.656;2023-03-01T14:44:36;33.67;;;22.45;;
56122;SDS011;42426;46.104;19.656;2023-03-01T14:47:02;42.83;;;23.85;;
56122;SDS011;42426;46.104;19.656;2023-03-01T14:49:30;37.78;;;21.20;;
56122;SDS011;42426;46.104;19.656;2023-03-01T14:52:04;35.17;;;21.45;;
56122;SDS011;42426;46.104;19.656;2023-03-01T14:54:41;43.63;;;22.45;;
56122;SDS011;42426;46.104;19.656;2023-03-01T14:57:17;36.58;;;24.15;;
56122;SDS011;42426;46.104;19.656;2023-03-01T14:59:48;42.33;;;23.10;;
56122;SDS011;42426;46.104;19.656;2023-03-01T15:02:17;42.95;;;23.23;;
56122;SDS011;42426;46.104;19.656;2023-03-01T15:04:46;39.65;;;23.20;;
56122;SDS011;42426;46.104;19.656;2023-03-01T15:07:14;42.65;;;24.50;;
56122;SDS011;42426;46.104;19.656;2023-03-01T15:09:40;43.63;;;23.83;;
56122;SDS011;42426;46.104;19.656;2023-03-01T15:15:30;37.55;;;23.42;;
56122;SDS011;42426;46.104;19.656;2023-03-01T15:18:02;39.80;;;23.25;;
56122;SDS011;42426;46.104;19.656;2023-03-01T15:20:39;43.22;;;23.70;;
56122;SDS011;42426;46.104;19.656;2023-03-01T15:23:05;40.97;;;28.48;;
56122;SDS011;42426;46.104;19.656;2023-03-01T15:25:43;38.83;;;24.05;;
56122;SDS011;42426;46.104;19.656;2023-03-01T15:28:18;38.40;;;24.25;;
56122;SDS011;42426;46.104;19.656;2023-03-01T15:30:45;41.80;;;25.00;;
56122;SDS011;42426;46.104;19.656;2023-03-01T15:35:58;39.97;;;25.00;;
56122;SDS011;42426;46.104;19.656;2023-03-01T15:41:26;40.20;;;23.43;;
56122;SDS011;42426;46.104;19.656;2023-03-01T15:44:01;35.83;;;22.77;;
56122;SDS011;42426;46.104;19.656;2023-03-01T15:46:45;44.40;;;22.63;;
56122;SDS011;42426;46.104;19.656;2023-03-01T15:52:02;38.47;;;24.05;;
56122;SDS011;42426;46.104;19.656;2023-03-01T15:54:29;42.80;;;23.75;;
56122;SDS011;42426;46.104;19.656;2023-03-01T15:56:55;40.38;;;22.58;;
56122;SDS011;42426;46.104;19.656;2023-03-01T15:59:21;38.40;;;24.67;;
56122;SDS011;42426;46.104;19.656;2023-03-01T16:01:47;44.47;;;26.23;;
56122;SDS011;42426;46.104;19.656;2023-03-01T16:04:17;48.70;;;28.50;;
56122;SDS011;42426;46.104;19.656;2023-03-01T16:09:19;55.05;;;29.88;;
56122;SDS011;42426;46.104;19.656;2023-03-01T16:11:46;53.67;;;30.63;;
56122;SDS011;42426;46.104;19.656;2023-03-01T16:14:12;57.65;;;32.72;;
56122;SDS011;42426;46.104;19.656;2023-03-01T16:16:39;57.67;;;32.95;;
56122;SDS011;42426;46.104;19.656;2023-03-01T16:19:05;51.10;;;31.05;;
56122;SDS011;42426;46.104;19.656;2023-03-01T16:21:31;54.53;;;30.92;;
56122;SDS011;42426;46.104;19.656;2023-03-01T16:23:56;56.50;;;33.50;;
56122;SDS011;42426;46.104;19.656;2023-03-01T16:26:22;59.28;;;36.08;;
56122;SDS011;42426;46.104;19.656;2023-03-01T16:28:48;62.10;;;34.90;;
56122;SDS011;42426;46.104;19.656;2023-03-01T16:31:18;53.05;;;34.00;;
56122;SDS011;42426;46.104;19.656;2023-03-01T16:33:44;56.75;;;34.83;;
56122;SDS011;42426;46.104;19.656;2023-03-01T16:36:15;62.70;;;35.65;;
56122;SDS011;42426;46.104;19.656;2023-03-01T16:38:42;62.38;;;39.42;;
56122;SDS011;42426;46.104;19.656;2023-03-01T16:41:13;66.22;;;36.50;;
56122;SDS011;42426;46.104;19.656;2023-03-01T16:43:40;63.03;;;33.60;;
56122;SDS011;42426;46.104;19.656;2023-03-01T16:46:18;57.67;;;35.50;;
56122;SDS011;42426;46.104;19.656;2023-03-01T16:48:45;65.97;;;38.70;;
56122;SDS011;42426;46.104;19.656;2023-03-01T16:51:12;69.45;;;38.88;;
56122;SDS011;42426;46.104;19.656;2023-03-01T16:53:38;71.70;;;40.83;;
56122;SDS011;42426;46.104;19.656;2023-03-01T16:56:05;74.63;;;44.97;;
56122;SDS011;42426;46.104;19.656;2023-03-01T16:58:33;68.43;;;39.65;;
56122;SDS011;42426;46.104;19.656;2023-03-01T17:01:06;79.38;;;40.60;;
56122;SDS011;42426;46.104;19.656;2023-03-01T17:03:35;77.10;;;44.17;;
56122;SDS011;42426;46.104;19.656;2023-03-01T17:06:02;83.13;;;48.50;;
56122;SDS011;42426;46.104;19.656;2023-03-01T17:08:32;84.55;;;44.80;;
56122;SDS011;42426;46.104;19.656;2023-03-01T17:11:04;90.90;;;50.08;;
56122;SDS011;42426;46.104;19.656;2023-03-01T17:13:35;91.82;;;51.35;;
56122;SDS011;42426;46.104;19.656;2023-03-01T17:16:06;82.40;;;46.17;;
56122;SDS011;42426;46.104;19.656;2023-03-01T17:18:33;80.00;;;47.88;;
56122;SDS011;42426;46.104;19.656;2023-03-01T17:20:59;77.32;;;43.95;;
56122;SDS011;42426;46.104;19.656;2023-03-01T17:23:26;81.63;;;46.90;;
56122;SDS011;42426;46.104;19.656;2023-03-01T17:25:53;80.10;;;44.38;;